Time;durP1;ratioP1;P1;durP2;ratioP2;P2;SDS_P1;SDS_P2;PMS_P1;PMS_P2;Temp;Humidity;BMP_temperature;BMP_pressure;BME280_temperature;BME280_humidity;BME280_pressure;Samples;Min_cycle;Max_cycle;Signal;HPM_P1;HPM_P2
2021/01/22 00:00:53;;;;;;;23.63;12.75;;;;;;;2.95;69.45;94558.25;5071691;28;20514;-65
2021/01/22 00:03:20;;;;;;;22.15;13.57;;;;;;;2.87;69.97;94565.16;5069825;28;20040;-65
2021/01/22 00:05:46;;;;;;;25.08;13.93;;;;;;;2.85;70.00;94554.72;5071425;28;20072;-65
2021/01/22 00:08:12;;;;;;;21.83;13.23;;;;;;;2.88;69.92;94562.19;5070087;28;20110;-65
2021/01/22 00:10:38;;;;;;;26.83;14.52;;;;;;;2.90;70.25;94553.00;5086698;28;20067;-65
2021/01/22 00:13:04;;;;;;;24.50;13.38;;;;;;;2.97;70.43;94562.19;5090597;28;20126;-65
2021/01/22 00:15:31;;;;;;;24.02;13.40;;;;;;;2.94;69.99;94564.72;5090670;28;20789;-65
2021/01/22 00:17:57;;;;;;;21.65;13.52;;;;;;;2.91;70.10;94559.97;5091185;28;20075;-65
2021/01/22 00:20:24;;;;;;;23.67;13.43;;;;;;;2.88;70.37;94551.44;5089739;28;20044;-65
2021/01/22 00:22:49;;;;;;;22.23;13.05;;;;;;;2.96;70.37;94557.13;5091562;28;20047;-65
2021/01/22 00:25:15;;;;;;;22.63;13.60;;;;;;;3.00;70.35;94563.47;5089343;28;20075;-65
2021/01/22 00:27:41;;;;;;;22.52;14.63;;;;;;;3.05;70.36;94582.16;5085386;28;20381;-65
2021/01/22 00:30:10;;;;;;;22.83;13.60;;;;;;;3.05;70.18;94595.59;5069656;28;20076;-65
2021/01/22 00:32:36;;;;;;;23.42;13.02;;;;;;;3.03;70.43;94576.31;5070660;28;20522;-65
2021/01/22 00:35:02;;;;;;;25.00;14.20;;;;;;;3.09;70.22;94601.94;5069786;28;20044;-65
2021/01/22 00:37:29;;;;;;;21.83;14.27;;;;;;;2.43;72.25;94673.59;5071025;28;20094;-64
2021/01/22 00:39:55;;;;;;;26.05;14.20;;;;;;;2.44;72.58;94640.25;5080468;28;20055;-65
2021/01/22 00:42:21;;;;;;;24.63;15.05;;;;;;;2.35;72.80;94653.66;5089734;28;21499;-65
2021/01/22 00:44:47;;;;;;;25.52;14.68;;;;;;;2.41;72.84;94670.44;5090881;28;20048;-65
2021/01/22 00:47:13;;;;;;;25.35;14.63;;;;;;;2.41;73.03;94667.75;5089281;28;20048;-65
2021/01/22 00:49:39;;;;;;;25.95;14.20;;;;;;;2.44;72.90;94662.53;5091174;28;20032;-65
2021/01/22 00:52:05;;;;;;;23.98;14.35;;;;;;;2.54;72.56;94664.16;5089292;28;20457;-65
2021/01/22 00:54:31;;;;;;;22.02;13.73;;;;;;;2.63;72.45;94656.94;5091234;28;20440;-65
2021/01/22 00:56:58;;;;;;;25.15;14.57;;;;;;;2.71;72.36;94640.06;5090761;28;20051;-65
2021/01/22 00:59:23;;;;;;;24.42;13.73;;;;;;;2.78;72.42;94635.03;5070085;28;20040;-65
2021/01/22 01:01:50;;;;;;;22.88;14.45;;;;;;;2.81;72.10;94634.41;5070020;28;20719;-65
2021/01/22 01:04:16;;;;;;;23.52;14.02;;;;;;;2.85;72.14;94643.44;5069599;28;20449;-65
2021/01/22 01:06:42;;;;;;;23.73;13.95;;;;;;;2.88;71.62;94637.47;5070439;28;20048;-65
2021/01/22 01:09:08;;;;;;;22.23;13.48;;;;;;;2.90;71.89;94633.66;5072066;28;20560;-65
2021/01/22 01:11:35;;;;;;;23.70;13.98;;;;;;;2.93;71.75;94630.34;5090861;28;20044;-65
2021/01/22 01:14:01;;;;;;;27.20;14.05;;;;;;;2.95;71.54;94623.56;5089460;28;20044;-65
2021/01/22 01:16:27;;;;;;;20.98;13.23;;;;;;;2.98;71.26;94619.47;5090645;28;20452;-65
2021/01/22 01:18:52;;;;;;;24.80;13.73;;;;;;;2.97;71.14;94628.59;5089565;28;20453;-65
2021/01/22 01:21:18;;;;;;;24.10;14.63;;;;;;;2.95;71.15;94625.44;5090054;28;20052;-65
2021/01/22 01:23:44;;;;;;;22.77;13.68;;;;;;;2.98;71.38;94614.09;5089784;28;20048;-65
2021/01/22 01:26:10;;;;;;;23.65;13.73;;;;;;;2.97;71.60;94607.09;5089559;28;20102;-65
2021/01/22 01:28:37;;;;;;;23.55;13.90;;;;;;;2.93;71.57;94608.84;5076680;28;20044;-65
2021/01/22 01:31:03;;;;;;;24.42;13.30;;;;;;;2.87;71.40;94608.19;5069108;28;20052;-65
2021/01/22 01:33:29;;;;;;;25.00;14.07;;;;;;;2.88;71.34;94607.88;5069938;28;20396;-65
2021/01/22 01:35:55;;;;;;;22.90;12.68;;;;;;;2.92;71.52;94604.56;5070157;28;20048;-65
2021/01/22 01:38:21;;;;;;;24.70;14.30;;;;;;;2.91;71.51;94603.75;5073939;28;20095;-65
2021/01/22 01:40:48;;;;;;;21.95;14.60;;;;;;;2.92;71.56;94594.59;5090057;28;20055;-65
2021/01/22 01:43:14;;;;;;;21.42;13.80;;;;;;;2.99;71.37;94596.84;5094164;28;20047;-65
2021/01/22 01:45:41;;;;;;;24.38;14.68;;;;;;;2.99;71.60;94591.47;5093368;28;20553;-65
2021/01/22 01:48:08;;;;;;;21.95;13.48;;;;;;;3.01;71.57;94590.03;5093684;28;20079;-65
2021/01/22 01:50:35;;;;;;;24.17;13.73;;;;;;;3.03;71.42;94589.75;5093773;28;20048;-65
2021/01/22 01:53:01;;;;;;;22.55;13.55;;;;;;;3.04;71.57;94580.56;5093752;28;20048;-65
2021/01/22 01:55:27;;;;;;;24.27;14.98;;;;;;;3.06;71.40;94578.34;5093742;28;20040;-65
2021/01/22 01:57:53;;;;;;;24.48;14.15;;;;;;;3.04;71.43;94580.56;5085491;28;20049;-65
2021/01/22 02:00:20;;;;;;;23.98;14.35;;;;;;;3.03;71.38;94574.41;5073458;28;20045;-65
2021/01/22 02:02:47;;;;;;;23.00;13.55;;;;;;;3.05;71.34;94564.09;5072585;28;20060;-65
2021/01/22 02:05:14;;;;;;;22.95;13.38;;;;;;;3.06;71.22;94567.59;5073410;28;20051;-65
2021/01/22 02:07:40;;;;;;;20.02;12.63;;;;;;;3.09;71.20;94566.97;5072801;28;20044;-65
2021/01/22 02:10:07;;;;;;;19.13;11.85;;;;;;;3.12;71.03;94558.25;5084246;28;20619;-65
2021/01/22 02:12:35;;;;;;;22.20;12.23;;;;;;;3.11;70.91;94564.75;5093002;28;20047;-65
2021/01/22 02:15:01;;;;;;;18.98;11.63;;;;;;;3.13;70.91;94557.97;5093478;28;20048;-65
2021/01/22 02:17:29;;;;;;;22.75;11.80;;;;;;;3.17;70.80;94552.72;5093079;28;20063;-65
2021/01/22 02:20:04;;;;;;;19.02;11.23;;;;;;;3.21;70.80;94548.31;5092994;28;20047;-65
2021/01/22 02:22:30;;;;;;;16.65;10.95;;;;;;;3.27;70.71;94551.63;5093589;28;20047;-65
2021/01/22 02:24:59;;;;;;;22.02;12.10;;;;;;;3.32;70.52;94554.16;5074518;28;20582;-65
2021/01/22 02:27:27;;;;;;;18.92;11.05;;;;;;;3.33;70.47;94551.16;5089595;28;20427;-65
2021/01/22 02:29:53;;;;;;;16.88;10.52;;;;;;;3.37;70.45;94546.72;5072246;28;20498;-65
2021/01/22 02:32:20;;;;;;;18.85;11.43;;;;;;;3.43;70.04;94554.66;5072772;28;20495;-65
2021/01/22 02:34:47;;;;;;;15.15;9.80;;;;;;;3.45;69.81;94565.91;5072528;28;20045;-65
2021/01/22 02:37:17;;;;;;;16.13;9.75;;;;;;;3.47;69.47;94558.28;5072541;28;20040;-65
2021/01/22 02:39:48;;;;;;;15.23;9.20;;;;;;;3.42;69.23;94563.84;5080725;28;20105;-65
2021/01/22 02:42:15;;;;;;;16.10;9.65;;;;;;;3.48;69.39;94576.03;5092261;28;20048;-65
2021/01/22 02:44:43;;;;;;;15.60;8.73;;;;;;;3.45;69.62;94573.97;5092852;28;20044;-65
2021/01/22 02:47:11;;;;;;;15.00;8.13;;;;;;;3.51;69.89;94589.66;5091243;28;20044;-65
2021/01/22 02:49:37;;;;;;;13.00;7.47;;;;;;;3.52;68.50;94595.81;5093607;28;20043;-65
2021/01/22 02:52:04;;;;;;;14.55;8.45;;;;;;;3.58;69.74;94610.69;5092966;28;20048;-65
2021/01/22 02:54:30;;;;;;;15.93;8.52;;;;;;;3.57;69.74;94599.16;5093360;28;20044;-65
2021/01/22 02:57:05;;;;;;;13.32;8.25;;;;;;;3.63;69.97;94587.09;5091990;28;20127;-65
2021/01/22 02:59:55;;;;;;;16.95;9.55;;;;;;;3.64;69.81;94577.13;5072261;28;20521;-65
2021/01/22 03:02:28;;;;;;;13.40;8.27;;;;;;;3.61;70.01;94561.63;5072052;28;22239;-65
2021/01/22 03:04:55;;;;;;;13.02;8.02;;;;;;;3.57;69.88;94568.75;5071684;28;20087;-65
2021/01/22 03:07:25;;;;;;;13.48;8.45;;;;;;;3.59;69.93;94590.75;5072332;28;20087;-65
2021/01/22 03:09:56;;;;;;;13.55;8.10;;;;;;;3.54;69.92;94588.22;5080611;28;20498;-65
2021/01/22 03:12:23;;;;;;;14.13;8.80;;;;;;;3.52;70.00;94590.44;5092322;28;20075;-65
2021/01/22 03:14:50;;;;;;;13.07;8.40;;;;;;;3.50;69.96;94574.63;5091964;28;20052;-65
2021/01/22 03:17:17;;;;;;;14.85;9.25;;;;;;;3.50;70.28;94582.69;5091776;28;20068;-65
2021/01/22 03:19:45;;;;;;;14.93;8.63;;;;;;;3.53;70.28;94589.31;5092094;28;20404;-65
2021/01/22 03:22:11;;;;;;;12.48;8.75;;;;;;;3.51;70.32;94603.09;5091381;28;20068;-65
2021/01/22 03:24:37;;;;;;;14.57;8.90;;;;;;;3.53;70.08;94629.69;5092500;28;20048;-65
2021/01/22 03:27:04;;;;;;;11.85;8.10;;;;;;;3.47;69.54;94641.72;5079400;28;20045;-65
2021/01/22 03:29:30;;;;;;;14.35;7.78;;;;;;;3.52;69.04;94639.66;5072378;28;20040;-65
2021/01/22 03:31:58;;;;;;;12.70;8.27;;;;;;;3.59;68.94;94639.97;5070763;28;20046;-65
2021/01/22 03:34:26;;;;;;;13.50;7.70;;;;;;;3.67;69.01;94641.91;5067141;28;20044;-64
2021/01/22 03:36:53;;;;;;;13.05;7.50;;;;;;;3.75;68.81;94631.44;5071130;28;20449;-65
2021/01/22 03:39:19;;;;;;;12.63;7.88;;;;;;;3.79;68.66;94649.34;5075598;28;20055;-65
2021/01/22 03:41:45;;;;;;;13.85;7.22;;;;;;;3.82;68.54;94648.72;5091611;28;20051;-65
2021/01/22 03:44:11;;;;;;;12.48;7.80;;;;;;;3.83;68.71;94655.69;5091139;28;20040;-65
2021/01/22 03:46:37;;;;;;;14.88;7.50;;;;;;;3.86;68.68;94663.13;5091759;28;20565;-65
2021/01/22 03:49:04;;;;;;;14.05;8.38;;;;;;;3.90;68.91;94669.44;5090739;28;20131;-65
2021/01/22 03:51:30;;;;;;;12.40;7.45;;;;;;;3.93;69.03;94670.75;5092109;28;20036;-65
2021/01/22 03:53:55;;;;;;;12.90;7.00;;;;;;;3.93;68.43;94660.75;5090942;28;20048;-65
2021/01/22 03:56:21;;;;;;;13.13;7.05;;;;;;;3.95;68.16;94662.34;5091472;28;20048;-65
2021/01/22 03:58:47;;;;;;;11.73;7.35;;;;;;;3.99;68.41;94663.28;5089966;28;20048;-65
2021/01/22 04:01:13;;;;;;;11.95;7.15;;;;;;;3.98;68.28;94659.03;5091250;28;20557;-65
2021/01/22 04:03:39;;;;;;;15.05;7.90;;;;;;;3.98;68.26;94651.72;5085098;28;20044;-65
2021/01/22 04:06:06;;;;;;;13.48;7.82;;;;;;;3.99;68.56;94650.63;5070620;28;20053;-65
2021/01/22 04:08:32;;;;;;;12.90;7.40;;;;;;;3.98;68.36;94650.94;5070971;28;20051;-65
2021/01/22 04:10:58;;;;;;;11.45;7.22;;;;;;;4.00;68.57;94648.72;5088897;28;20633;-65
2021/01/22 04:13:24;;;;;;;11.40;7.05;;;;;;;3.97;68.65;94643.94;5090834;28;20040;-65
2021/01/22 04:15:50;;;;;;;11.18;6.60;;;;;;;3.99;68.79;94636.34;5090690;28;20047;-65
2021/01/22 04:18:16;;;;;;;12.13;7.32;;;;;;;4.01;68.49;94634.91;5090777;28;20051;-65
2021/01/22 04:20:42;;;;;;;10.48;6.85;;;;;;;4.02;68.70;94633.00;5090362;28;20036;-65
2021/01/22 04:23:08;;;;;;;12.23;6.90;;;;;;;4.04;68.77;94628.91;5091023;28;20466;-65
2021/01/22 04:25:34;;;;;;;11.15;7.25;;;;;;;4.04;68.76;94623.53;5090262;28;20122;-65
2021/01/22 04:28:00;;;;;;;10.43;6.50;;;;;;;4.04;68.72;94617.34;5091040;28;20056;-65
2021/01/22 04:30:26;;;;;;;11.15;6.70;;;;;;;4.04;68.67;94606.56;5090388;28;20036;-65
2021/01/22 04:32:52;;;;;;;12.82;7.43;;;;;;;4.06;69.05;94615.13;5090484;28;20055;-65
2021/01/22 04:35:18;;;;;;;7.63;4.30;;;;;;;4.05;69.09;94608.16;5070556;28;20052;-65
2021/01/22 04:37:44;;;;;;;8.35;4.70;;;;;;;4.12;68.94;94603.06;5070264;28;20483;-65
2021/01/22 04:40:12;;;;;;;9.48;5.32;;;;;;;4.20;68.85;94604.97;5081784;28;20048;-65
2021/01/22 04:42:39;;;;;;;8.85;5.35;;;;;;;4.31;68.79;94583.84;5089869;28;20105;-65
2021/01/22 04:45:07;;;;;;;4.55;2.30;;;;;;;4.48;67.67;94583.00;5090705;28;20044;-65
2021/01/22 04:47:33;;;;;;;3.97;2.13;;;;;;;4.68;66.53;94575.00;5089941;28;20379;-65
2021/01/22 04:50:01;;;;;;;4.25;2.42;;;;;;;4.94;65.84;94574.88;5091069;28;20055;-65
2021/01/22 04:52:28;;;;;;;3.35;1.90;;;;;;;5.16;65.45;94563.00;5089696;28;20067;-65
2021/01/22 04:54:56;;;;;;;2.78;1.77;;;;;;;5.38;64.69;94567.34;5090650;28;20079;-65
2021/01/22 04:57:23;;;;;;;3.88;1.70;;;;;;;5.58;64.52;94565.72;5089586;28;20060;-65
2021/01/22 04:59:51;;;;;;;2.70;1.70;;;;;;;5.72;63.97;94560.06;5090160;28;20629;-65
2021/01/22 05:02:17;;;;;;;3.45;2.50;;;;;;;5.85;63.38;94563.63;5089862;28;20040;-65
2021/01/22 05:04:44;;;;;;;2.85;1.67;;;;;;;5.90;63.36;94564.22;5075210;28;20049;-65
2021/01/22 05:07:10;;;;;;;2.75;1.48;;;;;;;6.00;63.25;94557.63;5069971;28;20052;-65
2021/01/22 05:09:37;;;;;;;3.42;1.58;;;;;;;6.07;63.15;94559.81;5076088;28;20071;-65
2021/01/22 05:12:03;;;;;;;2.35;1.30;;;;;;;6.12;63.05;94556.91;5090282;28;20055;-65
2021/01/22 05:14:30;;;;;;;2.33;1.42;;;;;;;6.18;63.34;94550.94;5089593;28;20055;-65
2021/01/22 05:17:01;;;;;;;3.08;1.67;;;;;;;6.23;63.08;94553.44;5090559;28;20044;-65
2021/01/22 05:19:27;;;;;;;2.97;1.30;;;;;;;6.25;63.00;94555.78;5089524;28;20028;-65
2021/01/22 05:21:53;;;;;;;3.10;1.25;;;;;;;6.32;62.58;94550.66;5090220;28;20463;-65
2021/01/22 05:24:21;;;;;;;6.43;1.33;;;;;;;6.33;62.57;94546.03;5089599;28;20097;-65
2021/01/22 05:26:47;;;;;;;1.70;1.10;;;;;;;6.39;62.64;94539.28;5089371;28;20040;-65
2021/01/22 05:29:15;;;;;;;1.55;0.98;;;;;;;6.38;62.26;94529.59;5089733;28;20102;-65
2021/01/22 05:31:42;;;;;;;2.05;1.17;;;;;;;6.37;62.26;94523.41;5089223;28;20046;-65
2021/01/22 05:34:08;;;;;;;3.30;1.40;;;;;;;6.33;62.73;94519.78;5079966;28;20407;-65
2021/01/22 05:36:34;;;;;;;3.17;1.52;;;;;;;6.34;62.31;94515.94;5069059;28;20044;-65
2021/01/22 05:39:03;;;;;;;2.63;1.40;;;;;;;6.32;62.04;94523.63;5071909;28;20497;-65
2021/01/22 05:41:29;;;;;;;2.45;1.23;;;;;;;6.28;61.89;94528.09;5089291;28;20553;-65
2021/01/22 05:43:55;;;;;;;4.07;1.60;;;;;;;6.31;61.67;94527.41;5089839;28;20124;-65
2021/01/22 05:46:23;;;;;;;2.80;1.38;;;;;;;6.25;62.01;94526.06;5089282;28;20040;-65
2021/01/22 05:49:06;;;;;;;2.78;1.40;;;;;;;6.25;61.99;94523.34;5089411;28;20066;-65
2021/01/22 05:51:32;;;;;;;3.00;1.50;;;;;;;6.24;62.00;94516.38;5090285;28;20055;-65
2021/01/22 05:53:58;;;;;;;3.60;2.10;;;;;;;6.22;61.36;94524.03;5089108;28;20071;-65
2021/01/22 05:56:24;;;;;;;2.30;1.52;;;;;;;6.17;61.50;94516.16;5090003;28;20044;-65
2021/01/22 05:58:50;;;;;;;3.53;1.83;;;;;;;6.17;61.58;94511.53;5089092;28;20044;-65
2021/01/22 06:01:18;;;;;;;3.35;1.70;;;;;;;6.15;61.50;94510.28;5089589;28;20505;-65
2021/01/22 06:03:45;;;;;;;4.70;2.72;;;;;;;6.14;61.92;94516.81;5082808;28;20048;-65
2021/01/22 06:06:13;;;;;;;2.58;1.42;;;;;;;6.12;61.89;94509.03;5069017;28;20068;-65
2021/01/22 06:08:49;;;;;;;2.13;1.02;;;;;;;6.10;61.83;94507.78;5069528;28;20051;-65
2021/01/22 06:11:17;;;;;;;2.83;1.25;;;;;;;6.04;61.65;94507.22;5068334;28;20400;-65
2021/01/22 06:13:48;;;;;;;2.35;1.10;;;;;;;5.98;62.03;94513.94;5069634;28;20064;-65
2021/01/22 06:16:16;;;;;;;1.95;1.00;;;;;;;5.91;62.10;94519.91;5068093;28;20047;-65
2021/01/22 06:18:47;;;;;;;2.13;1.10;;;;;;;5.85;62.66;94510.41;5069955;28;20051;-65
2021/01/22 06:21:17;;;;;;;1.58;1.00;;;;;;;5.80;62.78;94507.13;5068174;28;20048;-65
2021/01/22 06:23:46;;;;;;;1.95;1.13;;;;;;;5.77;63.07;94508.56;5073267;28;20052;-65
2021/01/22 06:26:13;;;;;;;1.85;1.13;;;;;;;5.74;62.96;94509.22;5071976;28;20662;-65
2021/01/22 06:28:40;;;;;;;3.15;1.65;;;;;;;5.71;63.11;94504.50;5072738;28;20044;-65
2021/01/22 06:31:08;;;;;;;2.75;1.55;;;;;;;5.68;63.14;94499.75;5072515;28;20071;-65
2021/01/22 06:33:35;;;;;;;1.58;1.10;;;;;;;5.65;63.55;94489.63;5077872;28;20044;-65
2021/01/22 06:36:02;;;;;;;2.50;1.17;;;;;;;5.61;63.84;94489.47;5073251;28;20049;-65
2021/01/22 06:38:30;;;;;;;3.60;1.50;;;;;;;5.55;63.89;94490.03;5071544;28;20051;-65
2021/01/22 06:40:57;;;;;;;3.05;1.40;;;;;;;5.52;63.89;94491.47;5091279;28;20083;-65
2021/01/22 06:43:23;;;;;;;2.80;1.38;;;;;;;5.47;64.36;94488.97;5091566;28;20036;-64
2021/01/22 06:45:50;;;;;;;3.72;1.60;;;;;;;5.41;64.54;94495.69;5093006;28;20048;-65
2021/01/22 06:48:16;;;;;;;1.83;1.25;;;;;;;5.36;64.78;94485.09;5092010;28;20048;-65
2021/01/22 06:50:42;;;;;;;1.73;1.20;;;;;;;5.32;64.76;94493.06;5092556;28;20564;-65
2021/01/22 06:53:10;;;;;;;4.53;1.27;;;;;;;5.28;65.18;94491.38;5091679;28;20044;-65
2021/01/22 06:56:10;;;;;;;3.47;1.45;;;;;;;5.20;65.54;94495.69;5091790;28;20047;-65
2021/01/22 06:58:36;;;;;;;2.20;1.50;;;;;;;5.16;65.70;94494.75;5073012;28;20071;-65
2021/01/22 07:01:04;;;;;;;3.60;1.27;;;;;;;5.14;65.78;94499.72;5071225;28;20048;-66
2021/01/22 07:03:49;;;;;;;3.33;1.23;;;;;;;5.14;65.86;94497.00;5067969;28;20045;-65
2021/01/22 07:06:54;;;;;;;2.20;1.20;;;;;;;5.10;66.07;94496.09;5051542;28;20128;-65
2021/01/22 07:09:20;;;;;;;2.70;1.05;;;;;;;5.12;66.12;94496.56;5055575;28;20078;-64
2021/01/22 07:11:56;;;;;;;2.25;1.10;;;;;;;5.13;66.08;94501.63;5072645;28;20049;-64
2021/01/22 07:14:35;;;;;;;2.22;1.15;;;;;;;5.15;65.98;94503.97;5071007;28;20056;-64
2021/01/22 07:17:03;;;;;;;2.63;1.35;;;;;;;5.19;65.61;94504.91;5072271;28;20045;-64
2021/01/22 07:19:31;;;;;;;1.85;1.13;;;;;;;5.23;65.65;94516.63;5091815;28;20036;-64
2021/01/22 07:21:59;;;;;;;2.88;1.30;;;;;;;5.28;65.40;94521.84;5092297;28;20513;-64
2021/01/22 07:24:25;;;;;;;2.30;1.40;;;;;;;5.34;65.52;94528.63;5091825;28;20637;-69
2021/01/22 07:26:56;;;;;;;3.08;1.65;;;;;;;5.43;65.26;94523.16;5089080;28;20109;-67
2021/01/22 07:29:25;;;;;;;2.83;1.40;;;;;;;5.48;64.89;94523.75;5084164;28;20051;-67
2021/01/22 07:31:56;;;;;;;5.68;1.40;;;;;;;5.57;64.33;94528.28;5082192;28;20052;-67
2021/01/22 07:34:48;;;;;;;3.78;1.52;;;;;;;5.59;63.61;94534.94;5081343;28;20071;-67
2021/01/22 07:37:17;;;;;;;2.40;1.13;;;;;;;5.71;63.78;94539.59;5087898;28;20093;-67
2021/01/22 07:39:44;;;;;;;3.72;1.25;;;;;;;5.79;63.15;94554.13;5088365;28;20080;-67
2021/01/22 07:42:12;;;;;;;4.30;1.92;;;;;;;5.82;62.92;94545.38;5088236;28;20138;-67
2021/01/22 07:44:40;;;;;;;2.75;1.30;;;;;;;5.96;62.58;94544.00;5088135;28;20055;-67
2021/01/22 07:47:07;;;;;;;2.00;1.15;;;;;;;6.05;61.66;94553.94;5088453;28;20055;-67
2021/01/22 07:49:33;;;;;;;1.88;1.10;;;;;;;6.17;60.90;94553.97;5087808;28;20117;-66
2021/01/22 07:52:01;;;;;;;2.42;1.15;;;;;;;6.26;60.77;94549.25;5089057;28;20058;-67
2021/01/22 07:54:27;;;;;;;4.05;1.42;;;;;;;6.28;60.50;94555.91;5087387;28;20048;-67
2021/01/22 07:56:53;;;;;;;3.17;1.73;;;;;;;6.31;60.38;94542.84;5088357;28;20098;-67
2021/01/22 07:59:19;;;;;;;2.97;1.38;;;;;;;6.39;60.75;94541.97;5087376;28;20059;-67
2021/01/22 08:01:45;;;;;;;2.42;1.20;;;;;;;6.45;60.42;94552.22;5085382;28;20055;-67
2021/01/22 08:04:11;;;;;;;3.17;1.50;;;;;;;6.51;60.22;94548.19;5067446;28;20056;-67
2021/01/22 08:06:46;;;;;;;2.80;1.33;;;;;;;6.57;60.07;94550.66;5067492;28;20052;-66
2021/01/22 08:09:12;;;;;;;2.70;1.30;;;;;;;6.49;59.58;94555.84;5071119;28;20141;-67
2021/01/22 08:11:39;;;;;;;2.05;1.50;;;;;;;6.60;59.27;94550.00;5087280;28;20052;-66
2021/01/22 08:14:05;;;;;;;2.28;1.20;;;;;;;6.66;59.50;94559.47;5088220;28;20102;-66
2021/01/22 08:16:33;;;;;;;2.70;1.42;;;;;;;6.76;59.29;94559.03;5087122;28;20052;-66
2021/01/22 08:19:00;;;;;;;1.40;0.95;;;;;;;6.86;58.68;94553.19;5088181;28;20052;-67
2021/01/22 08:21:29;;;;;;;3.88;1.20;;;;;;;7.12;58.19;94550.13;5086886;28;20044;-67
2021/01/22 08:23:56;;;;;;;2.90;1.50;;;;;;;7.46;57.29;94538.00;5069701;28;20047;-67
2021/01/22 08:26:22;;;;;;;2.75;1.20;;;;;;;7.56;56.84;94531.31;5087063;28;20055;-66
2021/01/22 08:28:51;;;;;;;1.77;1.13;;;;;;;7.63;56.69;94534.25;5087236;28;20051;-67
2021/01/22 08:31:18;;;;;;;3.28;1.42;;;;;;;7.75;56.12;94525.28;5087460;28;20529;-67
2021/01/22 08:33:45;;;;;;;2.15;1.30;;;;;;;8.08;55.84;94516.91;5067836;28;20069;-67
2021/01/22 08:36:12;;;;;;;3.05;1.35;;;;;;;8.52;55.60;94516.91;5067211;28;20064;-67
2021/01/22 08:38:38;;;;;;;3.42;1.52;;;;;;;8.92;53.29;94513.22;5069680;28;20055;-67
2021/01/22 08:41:04;;;;;;;2.47;1.42;;;;;;;9.27;53.78;94529.53;5089711;28;20044;-67
2021/01/22 08:43:30;;;;;;;2.28;1.27;;;;;;;9.50;51.08;94522.31;5089924;28;20127;-67
2021/01/22 08:46:05;;;;;;;1.75;1.10;;;;;;;9.85;51.06;94526.91;5090263;28;20044;-67
2021/01/22 08:48:31;;;;;;;3.10;1.15;;;;;;;10.06;49.99;94521.88;5090251;28;20572;-67
2021/01/22 08:50:59;;;;;;;2.33;1.20;;;;;;;9.98;48.93;94522.13;5089975;28;20048;-67
2021/01/22 08:53:25;;;;;;;2.40;1.42;;;;;;;10.12;50.08;94508.78;5090134;28;20051;-67
2021/01/22 08:55:50;;;;;;;2.17;1.40;;;;;;;10.24;49.63;94518.78;5090077;28;20043;-68
2021/01/22 08:58:16;;;;;;;2.00;1.10;;;;;;;10.34;49.58;94537.22;5090471;28;20131;-68
2021/01/22 09:00:42;;;;;;;2.70;1.48;;;;;;;10.26;48.08;94530.06;5089636;28;20040;-68
2021/01/22 09:03:19;;;;;;;2.03;1.23;;;;;;;10.15;47.73;94530.63;5075886;28;20052;-68
2021/01/22 09:05:49;;;;;;;3.50;1.80;;;;;;;9.97;47.16;94518.63;5069206;28;20045;-68
2021/01/22 09:08:16;;;;;;;2.00;1.17;;;;;;;10.03;48.67;94525.34;5069647;28;20640;-70
2021/01/22 09:10:45;;;;;;;1.80;1.30;;;;;;;10.11;48.40;94518.88;5085561;28;20039;-68
2021/01/22 09:13:12;;;;;;;2.50;1.40;;;;;;;10.18;48.26;94519.03;5089309;28;20047;-67
2021/01/22 09:15:39;;;;;;;3.38;1.20;;;;;;;10.28;47.41;94516.88;5089935;28;20495;-67
2021/01/22 09:18:15;;;;;;;3.30;1.15;;;;;;;10.41;46.82;94505.47;5089136;28;20047;-68
2021/01/22 09:20:41;;;;;;;1.63;1.20;;;;;;;10.48;46.02;94504.81;5090603;28;20040;-67
2021/01/22 09:23:07;;;;;;;2.15;1.17;;;;;;;10.39;45.59;94502.34;5088903;28;20044;-67
2021/01/22 09:25:34;;;;;;;2.17;1.10;;;;;;;10.44;47.10;94504.78;5090826;28;20513;-67
2021/01/22 09:28:00;;;;;;;1.88;1.08;;;;;;;10.42;46.43;94500.81;5089417;28;20051;-67
2021/01/22 09:30:28;;;;;;;2.78;1.30;;;;;;;10.31;46.17;94508.00;5089695;28;20510;-67
2021/01/22 09:32:55;;;;;;;3.40;1.60;;;;;;;10.24;47.39;94510.63;5077496;28;20086;-68
2021/01/22 09:35:23;;;;;;;3.05;1.35;;;;;;;10.11;47.25;94502.56;5069263;28;20056;-67
2021/01/22 09:37:50;;;;;;;2.58;1.45;;;;;;;10.03;47.39;94506.31;5069801;28;20044;-68
2021/01/22 09:40:16;;;;;;;2.53;1.40;;;;;;;9.98;47.94;94509.31;5081078;28;20433;-67
2021/01/22 09:42:43;;;;;;;4.13;1.40;;;;;;;9.86;47.84;94512.16;5090416;28;20044;-68
2021/01/22 09:45:11;;;;;;;3.22;1.30;;;;;;;9.72;48.38;94506.47;5088819;28;20105;-68
2021/01/22 09:47:38;;;;;;;2.78;1.70;;;;;;;9.65;48.78;94507.06;5090489;28;20063;-67
2021/01/22 09:50:06;;;;;;;3.30;1.50;;;;;;;9.62;48.88;94508.59;5088761;28;20097;-67
2021/01/22 09:52:33;;;;;;;2.15;1.10;;;;;;;9.58;49.24;94499.56;5090099;28;20407;-68
2021/01/22 09:54:59;;;;;;;11.82;2.88;;;;;;;9.59;49.35;94498.41;5089548;28;20101;-68
2021/01/22 09:57:25;;;;;;;2.63;1.35;;;;;;;9.58;49.25;94490.63;5090838;28;20450;-67
2021/01/22 09:59:52;;;;;;;3.80;1.20;;;;;;;9.55;49.30;94492.16;5093715;28;20040;-67
2021/01/22 10:02:18;;;;;;;5.70;1.40;;;;;;;9.55;49.28;94492.16;5085513;28;20048;-67
2021/01/22 10:04:43;;;;;;;3.88;1.40;;;;;;;9.55;49.37;94486.72;5073814;28;20044;-68
2021/01/22 10:07:09;;;;;;;3.00;1.20;;;;;;;9.61;49.15;94484.50;5072084;28;20051;-67
2021/01/22 10:09:36;;;;;;;7.00;1.63;;;;;;;9.69;49.40;94469.91;5080777;28;20042;-67
2021/01/22 10:12:02;;;;;;;4.85;1.42;;;;;;;9.90;48.91;94474.97;5092505;28;20166;-68
2021/01/22 10:14:28;;;;;;;6.85;1.67;;;;;;;10.16;47.45;94469.63;5094054;28;20064;-68
2021/01/22 10:16:55;;;;;;;5.90;1.60;;;;;;;10.28;47.39;94465.97;5092932;28;20521;-68
2021/01/22 10:19:21;;;;;;;3.70;1.38;;;;;;;10.20;47.57;94470.50;5092942;28;20056;-67
2021/01/22 10:21:47;;;;;;;2.67;1.55;;;;;;;10.14;47.97;94469.22;5093160;28;20058;-67
2021/01/22 10:24:13;;;;;;;2.08;1.35;;;;;;;10.08;48.00;94462.50;5092747;28;20051;-67
2021/01/22 10:26:39;;;;;;;4.28;2.03;;;;;;;10.07;48.34;94447.31;5093394;28;20418;-68
2021/01/22 10:29:05;;;;;;;3.30;1.17;;;;;;;10.07;47.93;94452.75;5092313;28;20112;-68
2021/01/22 10:31:31;;;;;;;2.72;1.30;;;;;;;10.12;48.50;94449.72;5092718;28;20456;-67
2021/01/22 10:33:58;;;;;;;10.65;1.33;;;;;;;10.22;48.46;94436.69;5072143;28;20131;-68
2021/01/22 10:36:23;;;;;;;3.25;1.50;;;;;;;10.32;48.46;94430.69;5072975;28;20403;-68
2021/01/22 10:38:49;;;;;;;3.70;1.20;;;;;;;10.58;46.96;94433.44;5072504;28;20090;-67
2021/01/22 10:41:15;;;;;;;2.88;1.20;;;;;;;10.88;47.11;94430.03;5093017;28;20085;-67
2021/01/22 10:43:41;;;;;;;2.45;1.40;;;;;;;11.29;46.38;94428.28;5092540;28;20040;-67
2021/01/22 10:46:07;;;;;;;5.35;1.17;;;;;;;11.66;44.80;94417.44;5092481;28;20112;-68
2021/01/22 10:48:33;;;;;;;2.67;1.30;;;;;;;11.93;44.16;94420.88;5092655;28;20113;-68
2021/01/22 10:51:00;;;;;;;1.95;1.20;;;;;;;12.17;43.44;94416.06;5092304;28;20040;-68
2021/01/22 10:53:26;;;;;;;2.78;1.38;;;;;;;12.46;42.52;94412.44;5092076;28;20048;-67
2021/01/22 10:55:52;;;;;;;2.80;1.10;;;;;;;12.67;42.42;94413.78;5089768;28;20084;-68
2021/01/22 10:58:18;;;;;;;2.65;0.90;;;;;;;12.88;41.93;94413.16;5089104;28;20048;-66
2021/01/22 11:00:44;;;;;;;3.25;1.27;;;;;;;12.99;42.50;94411.28;5088675;28;20195;-66
2021/01/22 11:03:10;;;;;;;1.95;1.00;;;;;;;13.15;41.73;94403.56;5079502;28;20392;-66
2021/01/22 11:05:36;;;;;;;6.28;1.30;;;;;;;13.31;41.60;94404.09;5088518;28;20052;-66
2021/01/22 11:08:04;;;;;;;4.75;1.30;;;;;;;13.47;40.91;94414.72;5088288;28;20471;-66
2021/01/22 11:10:30;;;;;;;5.63;1.40;;;;;;;13.67;40.86;94401.50;5087558;28;20048;-66
2021/01/22 11:12:56;;;;;;;3.05;1.10;;;;;;;13.74;40.84;94395.28;5088278;28;20545;-65
2021/01/22 11:15:22;;;;;;;1.50;1.08;;;;;;;13.72;39.90;94392.13;5087721;28;20051;-66
2021/01/22 11:17:48;;;;;;;2.75;1.08;;;;;;;13.69;40.51;94377.28;5088648;28;20047;-66
2021/01/22 11:20:15;;;;;;;7.13;3.50;;;;;;;13.60;40.17;94378.81;5088785;28;20051;-66
2021/01/22 11:22:41;;;;;;;6.88;2.38;;;;;;;13.58;40.54;94373.75;5087988;28;20093;-66
2021/01/22 11:25:09;;;;;;;3.50;1.25;;;;;;;13.70;42.25;94373.38;5088781;28;20551;-66
2021/01/22 11:27:35;;;;;;;4.63;1.20;;;;;;;13.61;42.30;94359.28;5087311;28;20044;-66
2021/01/22 11:30:01;;;;;;;4.03;1.10;;;;;;;13.66;40.82;94353.44;5089326;28;20426;-66
2021/01/22 11:32:27;;;;;;;2.58;1.17;;;;;;;13.66;42.55;94339.75;5078750;28;20427;-66
2021/01/22 11:34:53;;;;;;;4.70;1.58;;;;;;;13.73;41.36;94334.34;5068736;28;20053;-66